sensor_id;sensor_type;location;lat;lon;timestamp;pressure;altitude;pressure_sealevel;temperature;humidity
26112;BME280;13829;48.990;8.346;2023-04-28T00:00:35;100199.59;;;14.34;73.59
26112;BME280;13829;48.990;8.346;2023-04-28T00:03:03;100198.66;;;14.38;71.98
26112;BME280;13829;48.990;8.346;2023-04-28T00:05:31;100198.38;;;14.57;77.18
26112;BME280;13829;48.990;8.346;2023-04-28T00:07:58;100202.97;;;14.45;77.63
26112;BME280;13829;48.990;8.346;2023-04-28T00:10:25;100210.03;;;14.43;78.58
26112;BME280;13829;48.990;8.346;2023-04-28T00:12:52;100204.78;;;14.42;79.94
26112;BME280;13829;48.990;8.346;2023-04-28T00:15:19;100199.53;;;14.37;80.95
26112;BME280;13829;48.990;8.346;2023-04-28T00:17:46;100187.16;;;14.39;81.69
26112;BME280;13829;48.990;8.346;2023-04-28T00:20:13;100187.97;;;14.44;76.60
26112;BME280;13829;48.990;8.346;2023-04-28T00:22:41;100189.03;;;14.31;72.73
26112;BME280;13829;48.990;8.346;2023-04-28T00:25:08;100185.56;;;14.27;72.04
26112;BME280;13829;48.990;8.346;2023-04-28T00:27:35;100181.69;;;14.51;75.72
26112;BME280;13829;48.990;8.346;2023-04-28T00:30:03;100183.50;;;14.46;78.81
26112;BME280;13829;48.990;8.346;2023-04-28T00:32:31;100188.94;;;14.37;79.42
26112;BME280;13829;48.990;8.346;2023-04-28T00:34:57;100188.13;;;14.33;80.06
26112;BME280;13829;48.990;8.346;2023-04-28T00:37:24;100186.38;;;14.34;80.66
26112;BME280;13829;48.990;8.346;2023-04-28T00:39:55;100183.81;;;14.28;77.41
26112;BME280;13829;48.990;8.346;2023-04-28T00:42:22;100173.16;;;14.31;76.29
26112;BME280;13829;48.990;8.346;2023-04-28T00:44:49;100170.53;;;14.29;76.49
26112;BME280;13829;48.990;8.346;2023-04-28T00:47:17;100163.47;;;14.31;76.63
26112;BME280;13829;48.990;8.346;2023-04-28T00:49:45;100168.72;;;14.34;75.90
26112;BME280;13829;48.990;8.346;2023-04-28T00:52:14;100172.22;;;14.35;76.02
26112;BME280;13829;48.990;8.346;2023-04-28T00:54:41;100164.28;;;14.35;77.75
26112;BME280;13829;48.990;8.346;2023-04-28T00:57:10;100158.16;;;14.33;79.24
26112;BME280;13829;48.990;8.346;2023-04-28T00:59:37;100158.19;;;14.31;76.43
26112;BME280;13829;48.990;8.346;2023-04-28T01:02:05;100152.78;;;14.38;77.60
26112;BME280;13829;48.990;8.346;2023-04-28T01:04:32;100150.13;;;14.39;77.50
26112;BME280;13829;48.990;8.346;2023-04-28T01:07:01;100152.84;;;14.34;78.98
26112;BME280;13829;48.990;8.346;2023-04-28T01:09:28;100155.44;;;14.36;78.91
26112;BME280;13829;48.990;8.346;2023-04-28T01:11:55;100151.06;;;14.37;79.48
26112;BME280;13829;48.990;8.346;2023-04-28T01:14:24;100143.09;;;14.35;80.92
26112;BME280;13829;48.990;8.346;2023-04-28T01:16:52;100150.25;;;14.30;82.64
26112;BME280;13829;48.990;8.346;2023-04-28T01:19:20;100150.31;;;14.27;83.48
26112;BME280;13829;48.990;8.346;2023-04-28T01:21:48;100147.56;;;14.33;83.33
26112;BME280;13829;48.990;8.346;2023-04-28T01:24:17;100150.19;;;14.34;81.89
26112;BME280;13829;48.990;8.346;2023-04-28T01:26:44;100145.91;;;14.26;84.01
26112;BME280;13829;48.990;8.346;2023-04-28T01:29:11;100148.50;;;14.27;84.83
26112;BME280;13829;48.990;8.346;2023-04-28T01:31:38;100149.47;;;14.23;85.48
26112;BME280;13829;48.990;8.346;2023-04-28T01:34:06;100147.69;;;14.25;86.50
26112;BME280;13829;48.990;8.346;2023-04-28T01:36:33;100141.31;;;14.37;87.56
26112;BME280;13829;48.990;8.346;2023-04-28T01:39:00;100143.16;;;14.32;87.30
26112;BME280;13829;48.990;8.346;2023-04-28T01:41:28;100145.91;;;14.26;88.00
26112;BME280;13829;48.990;8.346;2023-04-28T01:43:55;100153.03;;;14.21;89.34
26112;BME280;13829;48.990;8.346;2023-04-28T01:46:22;100147.78;;;14.16;89.79
26112;BME280;13829;48.990;8.346;2023-04-28T01:48:49;100160.19;;;14.14;90.59
26112;BME280;13829;48.990;8.346;2023-04-28T01:51:16;100160.16;;;14.15;90.88
26112;BME280;13829;48.990;8.346;2023-04-28T01:57:06;100146.94;;;14.15;87.70
26112;BME280;13829;48.990;8.346;2023-04-28T01:59:32;100145.16;;;14.17;89.32
26112;BME280;13829;48.990;8.346;2023-04-28T02:01:59;100138.94;;;14.20;89.47
26112;BME280;13829;48.990;8.346;2023-04-28T02:04:26;100136.19;;;14.28;86.74
26112;BME280;13829;48.990;8.346;2023-04-28T02:06:53;100138.22;;;14.09;87.46
26112;BME280;13829;48.990;8.346;2023-04-28T02:09:20;100140.06;;;14.02;87.80
26112;BME280;13829;48.990;8.346;2023-04-28T02:11:47;100147.06;;;14.06;87.76
26112;BME280;13829;48.990;8.346;2023-04-28T02:14:15;100170.66;;;14.22;87.86
26112;BME280;13829;48.990;8.346;2023-04-28T02:16:42;100171.75;;;14.05;87.70
26112;BME280;13829;48.990;8.346;2023-04-28T02:19:10;100167.28;;;14.10;90.03
26112;BME280;13829;48.990;8.346;2023-04-28T02:21:36;100159.50;;;13.98;90.90
26112;BME280;13829;48.990;8.346;2023-04-28T02:24:05;100152.53;;;13.91;91.15
26112;BME280;13829;48.990;8.346;2023-04-28T02:26:33;100163.09;;;13.94;91.44
26112;BME280;13829;48.990;8.346;2023-04-28T02:29:00;100162.25;;;13.90;93.68
26112;BME280;13829;48.990;8.346;2023-04-28T02:31:30;100157.00;;;13.85;94.62
26112;BME280;13829;48.990;8.346;2023-04-28T02:33:57;100153.44;;;13.88;94.96
26112;BME280;13829;48.990;8.346;2023-04-28T02:36:24;100150.97;;;13.77;95.10
26112;BME280;13829;48.990;8.346;2023-04-28T02:38:52;100166.69;;;13.86;97.64
26112;BME280;13829;48.990;8.346;2023-04-28T02:41:19;100170.25;;;13.84;98.11
26112;BME280;13829;48.990;8.346;2023-04-28T02:43:46;100167.59;;;13.87;98.33
26112;BME280;13829;48.990;8.346;2023-04-28T02:46:13;100172.91;;;13.82;99.34
26112;BME280;13829;48.990;8.346;2023-04-28T02:48:41;100175.84;;;13.58;100.00
26112;BME280;13829;48.990;8.346;2023-04-28T02:51:08;100180.09;;;13.71;100.00
26112;BME280;13829;48.990;8.346;2023-04-28T02:53:35;100174.13;;;13.53;100.00
26112;BME280;13829;48.990;8.346;2023-04-28T02:56:03;100172.31;;;13.59;100.00
26112;BME280;13829;48.990;8.346;2023-04-28T02:58:30;100165.31;;;13.54;100.00
26112;BME280;13829;48.990;8.346;2023-04-28T03:00:56;100174.00;;;13.63;100.00
26112;BME280;13829;48.990;8.346;2023-04-28T03:03:23;100170.75;;;13.36;100.00
26112;BME280;13829;48.990;8.346;2023-04-28T03:05:52;100166.34;;;13.43;100.00
26112;BME280;13829;48.990;8.346;2023-04-28T03:08:21;100159.31;;;13.35;100.00
26112;BME280;13829;48.990;8.346;2023-04-28T03:10:48;100167.25;;;13.34;100.00
26112;BME280;13829;48.990;8.346;2023-04-28T03:13:15;100158.53;;;13.26;100.00
26112;BME280;13829;48.990;8.346;2023-04-28T03:15:42;100157.66;;;13.25;100.00
26112;BME280;13829;48.990;8.346;2023-04-28T03:18:08;100148.81;;;13.29;100.00
26112;BME280;13829;48.990;8.346;2023-04-28T03:20:35;100150.47;;;13.41;100.00
26112;BME280;13829;48.990;8.346;2023-04-28T03:23:04;100144.19;;;13.51;100.00
26112;BME280;13829;48.990;8.346;2023-04-28T03:25:32;100129.22;;;13.53;100.00
26112;BME280;13829;48.990;8.346;2023-04-28T03:27:58;100127.22;;;13.73;100.00
26112;BME280;13829;48.990;8.346;2023-04-28T03:30:26;100126.53;;;13.55;100.00
26112;BME280;13829;48.990;8.346;2023-04-28T03:32:52;100138.16;;;13.40;100.00
26112;BME280;13829;48.990;8.346;2023-04-28T03:35:19;100132.97;;;13.29;100.00
26112;BME280;13829;48.990;8.346;2023-04-28T03:37:47;100133.81;;;13.30;100.00
26112;BME280;13829;48.990;8.346;2023-04-28T03:40:15;100132.97;;;13.29;100.00
26112;BME280;13829;48.990;8.346;2023-04-28T03:42:42;100130.28;;;13.34;100.00
26112;BME280;13829;48.990;8.346;2023-04-28T03:45:10;100124.22;;;13.21;100.00
26112;BME280;13829;48.990;8.346;2023-04-28T03:47:37;100123.31;;;13.27;100.00
26112;BME280;13829;48.990;8.346;2023-04-28T03:50:06;100119.78;;;13.26;100.00
26112;BME280;13829;48.990;8.346;2023-04-28T03:52:33;100112.59;;;13.42;100.00
26112;BME280;13829;48.990;8.346;2023-04-28T03:55:00;100117.91;;;13.36;100.00
26112;BME280;13829;48.990;8.346;2023-04-28T03:57:28;100121.50;;;13.32;100.00
26112;BME280;13829;48.990;8.346;2023-04-28T03:59:55;100120.63;;;13.30;100.00
26112;BME280;13829;48.990;8.346;2023-04-28T04:02:22;100120.63;;;13.30;100.00
26112;BME280;13829;48.990;8.346;2023-04-28T04:04:49;100118.03;;;13.24;100.00
26112;BME280;13829;48.990;8.346;2023-04-28T04:07:16;100119.75;;;13.31;100.00
26112;BME280;13829;48.990;8.346;2023-04-28T04:09:42;100117.97;;;13.33;100.00
26112;BME280;13829;48.990;8.346;2023-04-28T04:12:09;100114.50;;;13.28;100.00
26112;BME280;13829;48.990;8.346;2023-04-28T04:14:38;100111.88;;;13.28;100.00
26112;BME280;13829;48.990;8.346;2023-04-28T04:17:05;100110.97;;;13.29;100.00
26112;BME280;13829;48.990;8.346;2023-04-28T04:19:32;100103.00;;;13.32;100.00
26112;BME280;13829;48.990;8.346;2023-04-28T04:21:59;100103.88;;;13.31;100.00
26112;BME280;13829;48.990;8.346;2023-04-28T04:24:26;100088.94;;;13.31;100.00
26112;BME280;13829;48.990;8.346;2023-04-28T04:26:53;100088.03;;;13.34;100.00
26112;BME280;13829;48.990;8.346;2023-04-28T04:29:20;100079.97;;;13.48;100.00
26112;BME280;13829;48.990;8.346;2023-04-28T04:31:48;100074.69;;;13.46;100.00
26112;BME280;13829;48.990;8.346;2023-04-28T04:34:15;100074.69;;;13.48;100.00
26112;BME280;13829;48.990;8.346;2023-04-28T04:36:42;100064.13;;;13.46;100.00
26112;BME280;13829;48.990;8.346;2023-04-28T04:39:09;100074.75;;;13.42;100.00
26112;BME280;13829;48.990;8.346;2023-04-28T04:41:36;100082.63;;;13.45;100.00
26112;BME280;13829;48.990;8.346;2023-04-28T04:44:04;100081.72;;;13.47;100.00
26112;BME280;13829;48.990;8.346;2023-04-28T04:46:31;100078.16;;;13.53;100.00
26112;BME280;13829;48.990;8.346;2023-04-28T04:48:59;100083.31;;;13.62;100.00
26112;BME280;13829;48.990;8.346;2023-04-28T04:51:26;100074.53;;;13.59;100.00
26112;BME280;13829;48.990;8.346;2023-04-28T04:53:54;100079.00;;;13.57;100.00
26112;BME280;13829;48.990;8.346;2023-04-28T04:56:21;100090.25;;;13.68;100.00
26112;BME280;13829;48.990;8.346;2023-04-28T04:58:51;100080.59;;;13.65;100.00
26112;BME280;13829;48.990;8.346;2023-04-28T05:01:18;100089.44;;;13.66;100.00
26112;BME280;13829;48.990;8.346;2023-04-28T05:03:45;100092.91;;;13.68;100.00
26112;BME280;13829;48.990;8.346;2023-04-28T05:06:13;100099.09;;;13.65;100.00
26112;BME280;13829;48.990;8.346;2023-04-28T05:08:40;100098.25;;;13.65;100.00
26112;BME280;13829;48.990;8.346;2023-04-28T05:11:07;100102.66;;;13.64;100.00
26112;BME280;13829;48.990;8.346;2023-04-28T05:13:34;100107.06;;;13.64;100.00
26112;BME280;13829;48.990;8.346;2023-04-28T05:16:01;100099.06;;;13.70;100.00
26112;BME280;13829;48.990;8.346;2023-04-28T05:18:28;100097.22;;;13.75;100.00
26112;BME280;13829;48.990;8.346;2023-04-28T05:20:55;100091.00;;;13.81;100.00
26112;BME280;13829;48.990;8.346;2023-04-28T05:23:23;100087.22;;;13.99;100.00
26112;BME280;13829;48.990;8.346;2023-04-28T05:25:50;100079.44;;;13.88;100.00
26112;BME280;13829;48.990;8.346;2023-04-28T05:28:17;100083.81;;;13.91;100.00
26112;BME280;13829;48.990;8.346;2023-04-28T05:30:44;100082.13;;;13.85;100.00
26112;BME280;13829;48.990;8.346;2023-04-28T05:33:11;100071.50;;;13.90;100.00
26112;BME280;13829;48.990;8.346;2023-04-28T05:35:38;100075.91;;;13.89;100.00
26112;BME280;13829;48.990;8.346;2023-04-28T05:38:05;100074.94;;;13.95;100.00
26112;BME280;13829;48.990;8.346;2023-04-28T05:40:34;100069.75;;;13.89;100.00
26112;BME280;13829;48.990;8.346;2023-04-28T05:43:00;100066.88;;;14.04;100.00
26112;BME280;13829;48.990;8.346;2023-04-28T05:45:27;100069.38;;;14.13;100.00
26112;BME280;13829;48.990;8.346;2023-04-28T05:47:54;100078.69;;;14.38;100.00
26112;BME280;13829;48.990;8.346;2023-04-28T05:50:21;100070.84;;;14.33;100.00
26112;BME280;13829;48.990;8.346;2023-04-28T05:52:48;100070.97;;;14.24;100.00
26112;BME280;13829;48.990;8.346;2023-04-28T05:55:15;100062.13;;;14.28;100.00
26112;BME280;13829;48.990;8.346;2023-04-28T05:57:44;100066.59;;;14.24;100.00
26112;BME280;13829;48.990;8.346;2023-04-28T06:00:13;100062.13;;;14.26;100.00
26112;BME280;13829;48.990;8.346;2023-04-28T06:02:40;100065.59;;;14.30;100.00
26112;BME280;13829;48.990;8.346;2023-04-28T06:05:08;100057.75;;;14.25;100.00
26112;BME280;13829;48.990;8.346;2023-04-28T06:07:35;100060.28;;;14.33;100.00
26112;BME280;13829;48.990;8.346;2023-04-28T06:10:03;100060.09;;;14.45;100.00
26112;BME280;13829;48.990;8.346;2023-04-28T06:12:31;100058.31;;;14.44;100.00
26112;BME280;13829;48.990;8.346;2023-04-28T06:14:59;100052.13;;;14.47;100.00
26112;BME280;13829;48.990;8.346;2023-04-28T06:17:26;100063.28;;;14.63;100.00
26112;BME280;13829;48.990;8.346;2023-04-28T06:19:55;100049.22;;;14.61;100.00
26112;BME280;13829;48.990;8.346;2023-04-28T06:22:24;100049.91;;;14.74;100.00
26112;BME280;13829;48.990;8.346;2023-04-28T06:24:51;100054.28;;;14.76;100.00
26112;BME280;13829;48.990;8.346;2023-04-28T06:27:18;100047.53;;;14.55;100.00
26112;BME280;13829;48.990;8.346;2023-04-28T06:29:45;100057.09;;;14.67;100.00
26112;BME280;13829;48.990;8.346;2023-04-28T06:32:13;100057.94;;;14.69;100.00
26112;BME280;13829;48.990;8.346;2023-04-28T06:34:41;100049.91;;;14.74;100.00
26112;BME280;13829;48.990;8.346;2023-04-28T06:37:07;100051.66;;;14.75;100.00
26112;BME280;13829;48.990;8.346;2023-04-28T06:39:34;100047.41;;;14.63;100.00
26112;BME280;13829;48.990;8.346;2023-04-28T06:42:02;100038.47;;;14.73;100.00
26112;BME280;13829;48.990;8.346;2023-04-28T06:44:29;100045.66;;;14.65;100.00
26112;BME280;13829;48.990;8.346;2023-04-28T06:46:56;100044.03;;;14.55;100.00
26112;BME280;13829;48.990;8.346;2023-04-28T06:49:24;100045.88;;;14.49;100.00
26112;BME280;13829;48.990;8.346;2023-04-28T06:51:51;100050.28;;;14.50;100.00
26112;BME280;13829;48.990;8.346;2023-04-28T06:54:18;100042.13;;;14.63;100.00
26112;BME280;13829;48.990;8.346;2023-04-28T06:56:46;100049.16;;;14.64;100.00
26112;BME280;13829;48.990;8.346;2023-04-28T06:59:13;100053.97;;;14.42;100.00
26112;BME280;13829;48.990;8.346;2023-04-28T07:01:39;100048.84;;;14.31;100.00
26112;BME280;13829;48.990;8.346;2023-04-28T07:04:06;100050.31;;;14.47;100.00
26112;BME280;13829;48.990;8.346;2023-04-28T07:06:35;100052.00;;;14.53;100.00
26112;BME280;13829;48.990;8.346;2023-04-28T07:09:02;100049.63;;;14.36;100.00
26112;BME280;13829;48.990;8.346;2023-04-28T07:11:29;100046.94;;;14.39;100.00
26112;BME280;13829;48.990;8.346;2023-04-28T07:13:58;100044.97;;;14.52;100.00
26112;BME280;13829;48.990;8.346;2023-04-28T07:16:25;100056.47;;;14.49;100.00
26112;BME280;13829;48.990;8.346;2023-04-28T07:18:52;100075.78;;;14.55;100.00
26112;BME280;13829;48.990;8.346;2023-04-28T07:21:19;100066.81;;;14.65;100.00
26112;BME280;13829;48.990;8.346;2023-04-28T07:23:48;100075.59;;;14.68;100.00
26112;BME280;13829;48.990;8.346;2023-04-28T07:26:14;100083.69;;;14.56;100.00
26112;BME280;13829;48.990;8.346;2023-04-28T07:28:43;100092.59;;;14.52;100.00
26112;BME280;13829;48.990;8.346;2023-04-28T07:31:10;100091.88;;;14.42;100.00
26112;BME280;13829;48.990;8.346;2023-04-28T07:33:37;100098.84;;;14.46;100.00
26112;BME280;13829;48.990;8.346;2023-04-28T07:36:05;100091.81;;;14.47;100.00
26112;BME280;13829;48.990;8.346;2023-04-28T07:38:33;100096.22;;;14.45;100.00
26112;BME280;13829;48.990;8.346;2023-04-28T07:41:01;100093.44;;;14.54;100.00
26112;BME280;13829;48.990;8.346;2023-04-28T07:43:29;100088.03;;;14.62;100.00
26112;BME280;13829;48.990;8.346;2023-04-28T07:45:56;100087.94;;;14.68;100.00
26112;BME280;13829;48.990;8.346;2023-04-28T07:48:23;100087.13;;;14.64;100.00
26112;BME280;13829;48.990;8.346;2023-04-28T07:50:51;100097.63;;;14.69;100.00
26112;BME280;13829;48.990;8.346;2023-04-28T07:53:18;100091.41;;;14.73;100.00
26112;BME280;13829;48.990;8.346;2023-04-28T07:55:45;100083.53;;;14.68;100.00
26112;BME280;13829;48.990;8.346;2023-04-28T07:58:14;100086.19;;;14.68;100.00
26112;BME280;13829;48.990;8.346;2023-04-28T08:00:41;100090.38;;;14.80;100.00
26112;BME280;13829;48.990;8.346;2023-04-28T08:03:08;100097.31;;;14.88;100.00
26112;BME280;13829;48.990;8.346;2023-04-28T08:05:35;100096.63;;;14.76;100.00
26112;BME280;13829;48.990;8.346;2023-04-28T08:08:02;100103.63;;;14.80;100.00
26112;BME280;13829;48.990;8.346;2023-04-28T08:10:29;100103.47;;;14.90;100.00
26112;BME280;13829;48.990;8.346;2023-04-28T08:12:56;100106.13;;;14.90;100.00
26112;BME280;13829;48.990;8.346;2023-04-28T08:15:25;100108.78;;;14.90;100.00
26112;BME280;13829;48.990;8.346;2023-04-28T08:17:52;100105.31;;;14.84;100.00
26112;BME280;13829;48.990;8.346;2023-04-28T08:20:19;100115.78;;;14.91;100.00
26112;BME280;13829;48.990;8.346;2023-04-28T08:22:46;100115.84;;;14.88;100.00
26112;BME280;13829;48.990;8.346;2023-04-28T08:25:13;100109.38;;;15.04;100.00
26112;BME280;13829;48.990;8.346;2023-04-28T08:27:40;100114.69;;;15.04;100.00
26112;BME280;13829;48.990;8.346;2023-04-28T08:30:08;100111.81;;;15.16;100.00
26112;BME280;13829;48.990;8.346;2023-04-28T08:32:37;100115.41;;;15.12;100.00
26112;BME280;13829;48.990;8.346;2023-04-28T08:35:05;100111.84;;;15.13;100.00
26112;BME280;13829;48.990;8.346;2023-04-28T08:37:32;100111.69;;;15.23;100.00
26112;BME280;13829;48.990;8.346;2023-04-28T08:40:00;100110.88;;;15.19;100.00
26112;BME280;13829;48.990;8.346;2023-04-28T08:42:29;100106.34;;;15.26;100.00
26112;BME280;13829;48.990;8.346;2023-04-28T08:44:58;100109.47;;;15.46;100.00
26112;BME280;13829;48.990;8.346;2023-04-28T08:47:33;100113.00;;;15.47;100.00
26112;BME280;13829;48.990;8.346;2023-04-28T08:50:06;100111.03;;;15.57;100.00
26112;BME280;13829;48.990;8.346;2023-04-28T08:52:34;100116.19;;;15.63;100.00
26112;BME280;13829;48.990;8.346;2023-04-28T08:55:06;100111.81;;;15.62;100.00
26112;BME280;13829;48.990;8.346;2023-04-28T08:57:38;100118.13;;;15.55;100.00
26112;BME280;13829;48.990;8.346;2023-04-28T09:00:06;100126.06;;;15.56;100.00
26112;BME280;13829;48.990;8.346;2023-04-28T09:02:34;100119.81;;;15.59;100.00
26112;BME280;13829;48.990;8.346;2023-04-28T09:05:06;100122.25;;;15.70;100.00
26112;BME280;13829;48.990;8.346;2023-04-28T09:07:34;100114.50;;;15.59;100.00
26112;BME280;13829;48.990;8.346;2023-04-28T09:10:15;100126.66;;;15.69;100.00
26112;BME280;13829;48.990;8.346;2023-04-28T09:12:43;100121.31;;;15.72;100.00
26112;BME280;13829;48.990;8.346;2023-04-28T09:15:10;100124.22;;;15.60;100.00
26112;BME280;13829;48.990;8.346;2023-04-28T09:17:51;100120.44;;;15.73;100.00
26112;BME280;13829;48.990;8.346;2023-04-28T09:20:23;100116.03;;;15.72;100.00
26112;BME280;13829;48.990;8.346;2023-04-28T09:22:52;100114.69;;;15.93;100.00
26112;BME280;13829;48.990;8.346;2023-04-28T09:25:21;100118.13;;;16.00;100.00
26112;BME280;13829;48.990;8.346;2023-04-28T09:27:49;100120.69;;;16.03;100.00
26112;BME280;13829;48.990;8.346;2023-04-28T09:30:16;100113.31;;;16.18;100.00
26112;BME280;13829;48.990;8.346;2023-04-28T09:32:43;100119.38;;;16.21;100.00
26112;BME280;13829;48.990;8.346;2023-04-28T09:35:10;100112.09;;;16.31;100.00
26112;BME280;13829;48.990;8.346;2023-04-28T09:37:38;100112.81;;;16.38;100.00
26112;BME280;13829;48.990;8.346;2023-04-28T09:40:08;100114.38;;;16.48;100.00
26112;BME280;13829;48.990;8.346;2023-04-28T09:42:37;100112.63;;;16.47;100.00
26112;BME280;13829;48.990;8.346;2023-04-28T09:45:06;100115.13;;;16.53;100.00
26112;BME280;13829;48.990;8.346;2023-04-28T09:47:36;100115.59;;;16.69;100.00
26112;BME280;13829;48.990;8.346;2023-04-28T09:50:06;100110.28;;;16.69;100.00
26112;BME280;13829;48.990;8.346;2023-04-28T09:52:34;100118.41;;;16.63;100.00
26112;BME280;13829;48.990;8.346;2023-04-28T09:55:05;100109.13;;;16.79;100.00
26112;BME280;13829;48.990;8.346;2023-04-28T09:57:35;100105.88;;;17.04;100.00
26112;BME280;13829;48.990;8.346;2023-04-28T10:00:04;100106.38;;;17.19;100.00
26112;BME280;13829;48.990;8.346;2023-04-28T10:02:35;100107.84;;;17.31;100.00
26112;BME280;13829;48.990;8.346;2023-04-28T10:05:04;100106.16;;;17.28;100.00
26112;BME280;13829;48.990;8.346;2023-04-28T10:07:33;100098.88;;;17.35;100.00
26112;BME280;13829;48.990;8.346;2023-04-28T10:10:03;100105.25;;;17.29;100.00
26112;BME280;13829;48.990;8.346;2023-04-28T10:12:32;100098.88;;;17.35;100.00
26112;BME280;13829;48.990;8.346;2023-04-28T10:15:00;100118.44;;;17.32;100.00
26112;BME280;13829;48.990;8.346;2023-04-28T10:17:27;100110.31;;;17.05;100.00
26112;BME280;13829;48.990;8.346;2023-04-28T10:19:54;100101.44;;;17.05;100.00
26112;BME280;13829;48.990;8.346;2023-04-28T10:22:40;100104.63;;;16.85;100.00
26112;BME280;13829;48.990;8.346;2023-04-28T10:25:25;100104.56;;;16.86;100.00
26112;BME280;13829;48.990;8.346;2023-04-28T10:27:53;100101.69;;;16.95;100.00
26112;BME280;13829;48.990;8.346;2023-04-28T10:30:22;100106.28;;;16.89;100.00
26112;BME280;13829;48.990;8.346;2023-04-28T10:33:22;100101.66;;;16.97;100.00
26112;BME280;13829;48.990;8.346;2023-04-28T10:35:50;100109.13;;;17.16;100.00
26112;BME280;13829;48.990;8.346;2023-04-28T10:38:19;100102.66;;;17.26;100.00
26112;BME280;13829;48.990;8.346;2023-04-28T10:40:49;100101.31;;;17.42;100.00
26112;BME280;13829;48.990;8.346;2023-04-28T10:43:36;100107.25;;;17.52;100.00
26112;BME280;13829;48.990;8.346;2023-04-28T10:46:06;100099.22;;;17.54;100.00
26112;BME280;13829;48.990;8.346;2023-04-28T10:48:56;100102.78;;;17.53;100.00
26112;BME280;13829;48.990;8.346;2023-04-28T10:51:30;100094.75;;;17.56;100.00
26112;BME280;13829;48.990;8.346;2023-04-28T10:54:17;100099.03;;;17.60;100.00
26112;BME280;13829;48.990;8.346;2023-04-28T10:57:20;100110.13;;;17.76;100.00
26112;BME280;13829;48.990;8.346;2023-04-28T10:59:50;100093.03;;;17.83;100.00
26112;BME280;13829;48.990;8.346;2023-04-28T11:02:48;100089.63;;;17.78;100.00
26112;BME280;13829;48.990;8.346;2023-04-28T11:05:17;100089.50;;;17.83;100.00
26112;BME280;13829;48.990;8.346;2023-04-28T11:08:30;100098.22;;;17.88;100.00
26112;BME280;13829;48.990;8.346;2023-04-28T11:11:18;100091.50;;;17.76;100.00
26112;BME280;13829;48.990;8.346;2023-04-28T11:13:48;100082.13;;;17.63;100.00
26112;BME280;13829;48.990;8.346;2023-04-28T11:16:19;100082.81;;;17.69;100.00
26112;BME280;13829;48.990;8.346;2023-04-28T11:18:59;100086.75;;;17.86;100.00
26112;BME280;13829;48.990;8.346;2023-04-28T11:21:30;100087.81;;;17.80;100.00
26112;BME280;13829;48.990;8.346;2023-04-28T11:23:58;100079.16;;;17.73;100.00
26112;BME280;13829;48.990;8.346;2023-04-28T11:26:26;100083.22;;;17.85;100.00
26112;BME280;13829;48.990;8.346;2023-04-28T11:28:56;100087.88;;;17.79;100.00
26112;BME280;13829;48.990;8.346;2023-04-28T11:31:25;100081.78;;;17.43;100.00
26112;BME280;13829;48.990;8.346;2023-04-28T11:33:57;100083.50;;;17.46;100.00
26112;BME280;13829;48.990;8.346;2023-04-28T11:36:31;100081.09;;;17.37;100.00
26112;BME280;13829;48.990;8.346;2023-04-28T11:39:01;100078.22;;;17.44;100.00
26112;BME280;13829;48.990;8.346;2023-04-28T11:41:30;100077.50;;;17.38;100.00
26112;BME280;13829;48.990;8.346;2023-04-28T11:44:08;100076.00;;;17.29;100.00
26112;BME280;13829;48.990;8.346;2023-04-28T11:46:43;100067.63;;;17.43;100.00
26112;BME280;13829;48.990;8.346;2023-04-28T11:49:10;100068.31;;;17.50;100.00
26112;BME280;13829;48.990;8.346;2023-04-28T11:51:39;100069.91;;;17.57;100.00
26112;BME280;13829;48.990;8.346;2023-04-28T11:54:08;100068.72;;;17.67;100.00
26112;BME280;13829;48.990;8.346;2023-04-28T11:56:38;100062.13;;;17.79;100.00
26112;BME280;13829;48.990;8.346;2023-04-28T11:59:08;100059.59;;;17.74;100.00
26112;BME280;13829;48.990;8.346;2023-04-28T12:01:46;100063.22;;;17.73;100.00
26112;BME280;13829;48.990;8.346;2023-04-28T12:04:13;100064.44;;;17.61;100.00
26112;BME280;13829;48.990;8.346;2023-04-28T12:06:40;100079.97;;;17.46;100.00
26112;BME280;13829;48.990;8.346;2023-04-28T12:09:17;100076.03;;;17.27;100.00
26112;BME280;13829;48.990;8.346;2023-04-28T12:11:53;100073.41;;;17.26;100.00
26112;BME280;13829;48.990;8.346;2023-04-28T12:14:23;100080.56;;;17.24;100.00
26112;BME280;13829;48.990;8.346;2023-04-28T12:16:50;100079.69;;;17.23;100.00
26112;BME280;13829;48.990;8.346;2023-04-28T12:19:18;100072.34;;;17.33;100.00
26112;BME280;13829;48.990;8.346;2023-04-28T12:22:00;100065.09;;;17.68;100.00
26112;BME280;13829;48.990;8.346;2023-04-28T12:24:27;100052.88;;;17.92;100.00
26112;BME280;13829;48.990;8.346;2023-04-28T12:27:12;100058.09;;;18.24;100.00
26112;BME280;13829;48.990;8.346;2023-04-28T12:29:43;100051.56;;;18.34;100.00
26112;BME280;13829;48.990;8.346;2023-04-28T12:32:11;100064.97;;;18.31;100.00
26112;BME280;13829;48.990;8.346;2023-04-28T12:34:40;100058.22;;;18.21;100.00
26112;BME280;13829;48.990;8.346;2023-04-28T12:37:08;100064.97;;;18.31;100.00
26112;BME280;13829;48.990;8.346;2023-04-28T12:39:35;100063.22;;;18.30;100.00
26112;BME280;13829;48.990;8.346;2023-04-28T12:42:03;100065.75;;;18.35;100.00
26112;BME280;13829;48.990;8.346;2023-04-28T12:44:35;100061.72;;;18.50;100.00
26112;BME280;13829;48.990;8.346;2023-04-28T12:47:06;100062.31;;;18.58;100.00
26112;BME280;13829;48.990;8.346;2023-04-28T12:49:35;100056.97;;;18.58;100.00
26112;BME280;13829;48.990;8.346;2023-04-28T12:52:03;100061.34;;;18.61;100.00
26112;BME280;13829;48.990;8.346;2023-04-28T12:54:31;100064.19;;;18.56;100.00